TimeMDT,TemperatureF,Dew PointF,Humidity,Sea Level PressureIn,VisibilityMPH,Wind Direction,Wind SpeedMPH,Gust SpeedMPH,PrecipitationIn,Events,Conditions,WindDirDegrees,DateUTC
12:55 AM,64.0,39.0,40,29.93,10.0,SSW,3.5,-,N/A,,Clear,200,2011-10-02 06:55:00
1:55 AM,57.9,39.9,51,29.93,10.0,NW,4.6,-,N/A,,Clear,310,2011-10-02 07:55:00
2:55 AM,51.1,39.0,63,29.92,10.0,West,3.5,-,N/A,,Clear,270,2011-10-02 08:55:00
3:55 AM,53.1,39.9,61,29.91,10.0,Calm,Calm,-,N/A,,Clear,0,2011-10-02 09:55:00
4:55 AM,46.0,37.9,73,29.93,10.0,Calm,Calm,-,N/A,,Clear,0,2011-10-02 10:55:00
5:55 AM,44.1,37.0,76,29.94,10.0,Calm,Calm,-,N/A,,Clear,0,2011-10-02 11:55:00
6:55 AM,45.0,37.9,76,29.96,10.0,Calm,Calm,-,N/A,,Clear,0,2011-10-02 12:55:00
7:55 AM,50.0,41.0,71,29.96,10.0,Calm,Calm,-,N/A,,Clear,0,2011-10-02 13:55:00
8:55 AM,59.0,41.0,51,29.95,10.0,Calm,Calm,-,N/A,,Clear,0,2011-10-02 14:55:00
9:55 AM,69.1,42.1,38,29.93,10.0,Calm,Calm,-,N/A,,Clear,0,2011-10-02 15:55:00
10:55 AM,77.0,42.1,29,29.90,10.0,Variable,4.6,-,N/A,,Clear,0,2011-10-02 16:55:00
11:55 AM,82.9,39.9,22,29.88,10.0,SSE,8.1,-,N/A,,Clear,160,2011-10-02 17:55:00
12:55 PM,87.1,41.0,20,29.86,10.0,SSE,11.5,-,N/A,,Clear,150,2011-10-02 18:55:00
1:55 PM,91.0,41.0,17,29.83,10.0,South,9.2,-,N/A,,Clear,190,2011-10-02 19:55:00
2:55 PM,93.9,41.0,16,29.81,10.0,South,8.1,17.3,N/A,,Clear,170,2011-10-02 20:55:00
3:55 PM,95.0,39.9,15,29.80,10.0,South,9.2,-,N/A,,Clear,190,2011-10-02 21:55:00
4:55 PM,93.0,39.9,16,29.81,10.0,South,10.4,-,N/A,,Clear,170,2011-10-02 22:55:00
5:55 PM,87.1,42.1,21,29.82,10.0,SSE,6.9,-,N/A,,Clear,160,2011-10-02 23:55:00
6:55 PM,78.1,43.0,29,29.83,10.0,SE,4.6,-,N/A,,Clear,130,2011-10-03 00:55:00
7:55 PM,77.0,42.1,29,29.84,10.0,SSE,13.8,-,N/A,,Clear,160,2011-10-03 01:55:00
8:55 PM,73.0,42.1,33,29.84,10.0,South,12.7,-,N/A,,Clear,170,2011-10-03 02:55:00
9:55 PM,75.0,39.9,28,29.83,10.0,South,16.1,20.7,N/A,,Clear,190,2011-10-03 03:55:00
10:55 PM,75.0,39.0,27,29.84,10.0,SSW,15.0,23.0,N/A,,Clear,210,2011-10-03 04:55:00
11:55 PM,72.0,39.0,30,29.83,10.0,SW,5.8,-,N/A,,Clear,230,2011-10-03 05:55:00